AFL1040 UUEE-URSS
Flight info
| Callsign | AFL1040 |
|---|---|
| Flight time | 3h 34m |
| Altitude | 35000 |
| Route | TOGMO M56 ABAGI B105 NATIT DCT MOLED N50 LIDUS G242 ZG DCT ITAKA DCT OBBUD DCT AMKOL DCT GOTIK DCT MEMZA DCT VENFO DCT BINOL |
| Aircraft | A320/M-SDE3FGHIRWY/LB1 |
Departure
| Time | 2026-05-07 20:48 |
|---|---|
| Airport | Sheremetyevo International Airport (UUEE) |
Arrival
| Time | 2026-05-08 00:23 |
|---|---|
| Airport | Sochi International Airport (URSS) |
| Time | Latitude | Longitude | Altitude | Speed | Heading |
|---|---|---|---|---|---|
| 2026-05-07 20:21 | 55.97840 | 37.41637 | 639 ft | 0 kts | 75° |
| 2026-05-07 20:34 | 55.97839 | 37.41634 | 639 ft | 2 kts | 75° |
| 2026-05-07 20:35 | 55.97835 | 37.41605 | 644 ft | 2 kts | 75° |
| 2026-05-07 20:35 | 55.97831 | 37.41577 | 644 ft | 2 kts | 75° |
| 2026-05-07 20:35 | 55.97827 | 37.41548 | 640 ft | 2 kts | 75° |
| 2026-05-07 20:35 | 55.97824 | 37.41519 | 640 ft | 2 kts | 129° |
| 2026-05-07 20:36 | 55.97836 | 37.41505 | 645 ft | 1 kts | 160° |
| 2026-05-07 20:36 | 55.97840 | 37.41503 | 644 ft | 0 kts | 164° |
| 2026-05-07 20:36 | 55.97839 | 37.41503 | 644 ft | 0 kts | 164° |
| 2026-05-07 20:40 | 55.97831 | 37.41507 | 640 ft | 1 kts | 164° |
| 2026-05-07 20:40 | 55.97822 | 37.41512 | 644 ft | 4 kts | 164° |
| 2026-05-07 20:41 | 55.97783 | 37.41531 | 639 ft | 8 kts | 165° |
| 2026-05-07 20:41 | 55.97731 | 37.41556 | 639 ft | 9 kts | 165° |
| 2026-05-07 20:41 | 55.97674 | 37.41583 | 645 ft | 7 kts | 165° |
| 2026-05-07 20:41 | 55.97622 | 37.41600 | 642 ft | 8 kts | 186° |
| 2026-05-07 20:42 | 55.97582 | 37.41496 | 642 ft | 13 kts | 253° |
| 2026-05-07 20:42 | 55.97554 | 37.41315 | 642 ft | 17 kts | 255° |
| 2026-05-07 20:42 | 55.97525 | 37.41115 | 641 ft | 17 kts | 256° |
| 2026-05-07 20:42 | 55.97494 | 37.40914 | 643 ft | 17 kts | 255° |
| 2026-05-07 20:43 | 55.97464 | 37.40713 | 641 ft | 18 kts | 255° |
| 2026-05-07 20:43 | 55.97431 | 37.40498 | 639 ft | 18 kts | 255° |
| 2026-05-07 20:43 | 55.97399 | 37.40274 | 645 ft | 19 kts | 255° |
| 2026-05-07 20:43 | 55.97364 | 37.40042 | 641 ft | 20 kts | 255° |
| 2026-05-07 20:44 | 55.97328 | 37.39801 | 643 ft | 20 kts | 255° |
| 2026-05-07 20:44 | 55.97291 | 37.39555 | 640 ft | 21 kts | 255° |
| 2026-05-07 20:44 | 55.97253 | 37.39302 | 643 ft | 21 kts | 255° |
| 2026-05-07 20:44 | 55.97214 | 37.39042 | 647 ft | 22 kts | 255° |
| 2026-05-07 20:45 | 55.97183 | 37.38834 | 641 ft | 13 kts | 256° |
| 2026-05-07 20:45 | 55.97163 | 37.38695 | 639 ft | 10 kts | 249° |
| 2026-05-07 20:45 | 55.97115 | 37.38654 | 639 ft | 0 kts | 167° |
| 2026-05-07 20:46 | 55.97103 | 37.38659 | 639 ft | 3 kts | 167° |
| 2026-05-07 20:46 | 55.97038 | 37.38687 | 639 ft | 12 kts | 161° |
| 2026-05-07 20:47 | 55.97002 | 37.38797 | 642 ft | 11 kts | 84° |
| 2026-05-07 20:47 | 55.97010 | 37.38857 | 639 ft | 0 kts | 75° |
| 2026-05-07 20:47 | 55.97011 | 37.38861 | 639 ft | 6 kts | 76° |
| 2026-05-07 20:48 | 55.97090 | 37.39390 | 642 ft | 79 kts | 75° |
| 2026-05-07 20:48 | 55.97284 | 37.40691 | 641 ft | 135 kts | 75° |
| 2026-05-07 20:48 | 55.97569 | 37.42582 | 717 ft | 172 kts | 76° |
| 2026-05-07 20:48 | 55.97851 | 37.44544 | 1418 ft | 166 kts | 76° |
| 2026-05-07 20:49 | 55.98141 | 37.46587 | 1903 ft | 175 kts | 77° |
| 2026-05-07 20:49 | 55.98450 | 37.48829 | 2149 ft | 197 kts | 77° |
| 2026-05-07 20:49 | 55.98794 | 37.51331 | 2350 ft | 219 kts | 77° |
| 2026-05-07 20:49 | 55.99176 | 37.54112 | 2583 ft | 243 kts | 77° |
| 2026-05-07 20:50 | 55.99594 | 37.57136 | 3142 ft | 254 kts | 77° |
| 2026-05-07 20:50 | 56.00024 | 37.60223 | 3840 ft | 259 kts | 77° |
| 2026-05-07 20:50 | 56.00489 | 37.63353 | 4551 ft | 264 kts | 71° |
| 2026-05-07 20:50 | 56.01562 | 37.66014 | 5215 ft | 270 kts | 34° |
| 2026-05-07 20:51 | 56.03320 | 37.67229 | 5625 ft | 281 kts | 360° |
| 2026-05-07 20:51 | 56.05278 | 37.66873 | 6195 ft | 286 kts | 341° |
| 2026-05-07 20:51 | 56.07185 | 37.65808 | 6891 ft | 288 kts | 335° |
| 2026-05-07 20:51 | 56.09029 | 37.64402 | 7632 ft | 286 kts | 321° |
| 2026-05-07 20:52 | 56.10409 | 37.61973 | 8355 ft | 276 kts | 297° |
| 2026-05-07 20:52 | 56.11211 | 37.58898 | 8963 ft | 271 kts | 278° |
| 2026-05-07 20:52 | 56.11327 | 37.55599 | 9793 ft | 263 kts | 258° |
| 2026-05-07 20:52 | 56.10853 | 37.52424 | 10319 ft | 271 kts | 250° |
| 2026-05-07 20:53 | 56.10254 | 37.49175 | 10730 ft | 283 kts | 250° |
| 2026-05-07 20:53 | 56.09602 | 37.45763 | 11377 ft | 287 kts | 250° |
| 2026-05-07 20:53 | 56.08957 | 37.42407 | 12051 ft | 291 kts | 250° |
| 2026-05-07 20:53 | 56.08297 | 37.38968 | 12677 ft | 294 kts | 251° |
| 2026-05-07 20:54 | 56.07557 | 37.35544 | 12865 ft | 295 kts | 243° |
| 2026-05-07 20:54 | 56.06417 | 37.32502 | 12908 ft | 297 kts | 230° |
| 2026-05-07 20:54 | 56.04848 | 37.30032 | 13422 ft | 303 kts | 219° |
| 2026-05-07 20:54 | 56.03126 | 37.27838 | 14081 ft | 306 kts | 219° |
| 2026-05-07 20:55 | 56.01257 | 37.25436 | 14697 ft | 309 kts | 219° |
| 2026-05-07 20:55 | 55.99638 | 37.23349 | 15223 ft | 312 kts | 219° |
| 2026-05-07 20:55 | 55.97866 | 37.21074 | 15781 ft | 315 kts | 219° |
| 2026-05-07 20:55 | 55.96079 | 37.18784 | 16323 ft | 319 kts | 219° |
| 2026-05-07 20:56 | 55.94266 | 37.16464 | 16861 ft | 322 kts | 219° |
| 2026-05-07 20:56 | 55.92437 | 37.14130 | 17409 ft | 325 kts | 219° |
| 2026-05-07 20:56 | 55.90587 | 37.11776 | 17948 ft | 328 kts | 218° |
| 2026-05-07 20:56 | 55.88724 | 37.09406 | 18435 ft | 331 kts | 218° |
| 2026-05-07 20:57 | 55.86837 | 37.07019 | 18914 ft | 334 kts | 217° |
| 2026-05-07 20:57 | 55.84779 | 37.05028 | 19390 ft | 340 kts | 208° |
| 2026-05-07 20:57 | 55.82625 | 37.03270 | 19867 ft | 342 kts | 208° |
| 2026-05-07 20:57 | 55.80451 | 37.01497 | 20342 ft | 345 kts | 208° |
| 2026-05-07 20:58 | 55.78266 | 36.99713 | 20809 ft | 347 kts | 208° |
| 2026-05-07 20:58 | 55.76055 | 36.97951 | 21271 ft | 351 kts | 205° |
| 2026-05-07 20:58 | 55.73676 | 36.96802 | 21722 ft | 359 kts | 193° |
| 2026-05-07 20:58 | 55.71153 | 36.96577 | 22165 ft | 368 kts | 181° |
| 2026-05-07 20:59 | 55.68584 | 36.97191 | 22593 ft | 374 kts | 176° |
| 2026-05-07 20:59 | 55.66002 | 36.97919 | 23026 ft | 377 kts | 176° |
| 2026-05-07 20:59 | 55.63412 | 36.98724 | 23450 ft | 382 kts | 171° |
| 2026-05-07 20:59 | 55.60876 | 37.00313 | 23800 ft | 392 kts | 159° |
| 2026-05-07 21:00 | 55.58526 | 37.02866 | 24139 ft | 401 kts | 146° |
| 2026-05-07 21:00 | 55.56496 | 37.06311 | 24481 ft | 410 kts | 133° |
| 2026-05-07 21:00 | 55.54699 | 37.10248 | 24841 ft | 412 kts | 132° |
| 2026-05-07 21:00 | 55.52903 | 37.14202 | 25189 ft | 414 kts | 132° |
| 2026-05-07 21:01 | 55.51092 | 37.18173 | 25539 ft | 416 kts | 132° |
| 2026-05-07 21:01 | 55.49263 | 37.22158 | 25887 ft | 418 kts | 132° |
| 2026-05-07 21:01 | 55.47430 | 37.26139 | 26234 ft | 420 kts | 132° |
| 2026-05-07 21:01 | 55.45578 | 37.30139 | 26571 ft | 422 kts | 132° |
| 2026-05-07 21:02 | 55.43718 | 37.34147 | 26891 ft | 424 kts | 132° |
| 2026-05-07 21:02 | 55.41847 | 37.38178 | 27220 ft | 426 kts | 131° |
| 2026-05-07 21:02 | 55.39968 | 37.42231 | 27532 ft | 428 kts | 131° |
| 2026-05-07 21:02 | 55.38081 | 37.46300 | 27852 ft | 430 kts | 131° |
| 2026-05-07 21:03 | 55.36184 | 37.50384 | 28148 ft | 432 kts | 131° |
| 2026-05-07 21:03 | 55.34185 | 37.54330 | 28418 ft | 434 kts | 137° |
| 2026-05-07 21:03 | 55.32029 | 37.58088 | 28555 ft | 439 kts | 139° |
| 2026-05-07 21:03 | 55.29671 | 37.61524 | 28691 ft | 442 kts | 148° |
| 2026-05-07 21:04 | 55.27027 | 37.64289 | 28843 ft | 444 kts | 157° |
| 2026-05-07 21:04 | 55.24168 | 37.66325 | 28980 ft | 445 kts | 166° |
| 2026-05-07 21:04 | 55.21154 | 37.67589 | 29124 ft | 446 kts | 175° |
| 2026-05-07 21:04 | 55.18067 | 37.68326 | 29266 ft | 450 kts | 175° |
| 2026-05-07 21:05 | 55.14952 | 37.69058 | 29414 ft | 454 kts | 175° |
| 2026-05-07 21:05 | 55.11808 | 37.69804 | 29621 ft | 457 kts | 175° |
| 2026-05-07 21:05 | 55.08652 | 37.70560 | 29856 ft | 459 kts | 175° |
| 2026-05-07 21:05 | 55.05484 | 37.71318 | 30074 ft | 461 kts | 175° |
| 2026-05-07 21:06 | 55.02305 | 37.72074 | 30293 ft | 461 kts | 175° |
| 2026-05-07 21:06 | 54.99136 | 37.72945 | 30595 ft | 462 kts | 170° |
| 2026-05-07 21:06 | 54.96011 | 37.74249 | 30877 ft | 462 kts | 169° |
| 2026-05-07 21:06 | 54.92926 | 37.75542 | 31161 ft | 462 kts | 169° |
| 2026-05-07 21:07 | 54.89762 | 37.76852 | 31444 ft | 461 kts | 171° |
| 2026-05-07 21:07 | 54.86611 | 37.77720 | 31714 ft | 458 kts | 175° |
| 2026-05-07 21:07 | 54.83449 | 37.78456 | 31994 ft | 458 kts | 175° |
| 2026-05-07 21:07 | 54.80292 | 37.79182 | 32281 ft | 457 kts | 175° |
| 2026-05-07 21:08 | 54.77138 | 37.79904 | 32552 ft | 457 kts | 175° |
| 2026-05-07 21:08 | 54.73989 | 37.80629 | 32818 ft | 457 kts | 175° |
| 2026-05-07 21:08 | 54.70841 | 37.81355 | 33088 ft | 457 kts | 175° |
| 2026-05-07 21:08 | 54.67691 | 37.82080 | 33346 ft | 456 kts | 175° |
| 2026-05-07 21:09 | 54.64547 | 37.82666 | 33611 ft | 454 kts | 180° |
| 2026-05-07 21:09 | 54.61388 | 37.82866 | 33855 ft | 454 kts | 180° |
| 2026-05-07 21:09 | 54.58229 | 37.83061 | 34079 ft | 454 kts | 180° |
| 2026-05-07 21:09 | 54.55073 | 37.83378 | 34304 ft | 456 kts | 173° |
| 2026-05-07 21:10 | 54.52008 | 37.84804 | 34511 ft | 460 kts | 158° |
| 2026-05-07 21:10 | 54.49285 | 37.87564 | 34699 ft | 462 kts | 141° |
| 2026-05-07 21:10 | 54.47063 | 37.91548 | 34882 ft | 464 kts | 125° |
| 2026-05-07 21:10 | 54.45518 | 37.96474 | 34939 ft | 462 kts | 109° |
| 2026-05-07 21:11 | 54.44797 | 38.01747 | 34940 ft | 460 kts | 95° |
| 2026-05-07 21:11 | 54.43899 | 38.18162 | 34944 ft | 460 kts | 94° |
| 2026-05-07 21:12 | 54.43285 | 38.29095 | 34944 ft | 460 kts | 94° |
| 2026-05-07 21:12 | 54.42650 | 38.40006 | 34944 ft | 459 kts | 95° |
| 2026-05-07 21:13 | 54.42004 | 38.50927 | 34946 ft | 459 kts | 95° |
| 2026-05-07 21:13 | 54.41351 | 38.61818 | 34942 ft | 459 kts | 95° |
| 2026-05-07 21:14 | 54.40694 | 38.72722 | 34936 ft | 459 kts | 95° |
| 2026-05-07 21:14 | 54.40030 | 38.83603 | 34939 ft | 459 kts | 95° |
| 2026-05-07 21:15 | 54.39342 | 38.94483 | 34940 ft | 458 kts | 95° |
| 2026-05-07 21:15 | 54.38157 | 39.05203 | 34941 ft | 459 kts | 109° |
| 2026-05-07 21:16 | 54.36163 | 39.13714 | 34939 ft | 459 kts | 112° |
| 2026-05-07 21:16 | 54.33737 | 39.23751 | 34937 ft | 459 kts | 112° |
| 2026-05-07 21:17 | 54.31305 | 39.33850 | 34938 ft | 459 kts | 112° |
| 2026-05-07 21:17 | 54.28862 | 39.43940 | 34941 ft | 458 kts | 112° |
| 2026-05-07 21:18 | 54.26402 | 39.54007 | 34941 ft | 458 kts | 112° |
| 2026-05-07 21:18 | 54.23941 | 39.64034 | 34939 ft | 457 kts | 112° |
| 2026-05-07 21:19 | 54.21468 | 39.74056 | 34943 ft | 457 kts | 112° |
| 2026-05-07 21:19 | 54.18991 | 39.84050 | 34943 ft | 456 kts | 112° |
| 2026-05-07 21:20 | 54.16516 | 39.94012 | 34946 ft | 456 kts | 112° |
| 2026-05-07 21:20 | 54.14029 | 40.03958 | 34943 ft | 455 kts | 112° |
| 2026-05-07 21:21 | 54.11605 | 40.13918 | 34947 ft | 454 kts | 107° |
| 2026-05-07 21:21 | 54.09822 | 40.24233 | 34944 ft | 454 kts | 105° |
| 2026-05-07 21:22 | 54.08043 | 40.34543 | 34943 ft | 453 kts | 106° |
| 2026-05-07 21:22 | 54.06243 | 40.44819 | 34941 ft | 453 kts | 106° |
| 2026-05-07 21:23 | 54.04432 | 40.55073 | 34944 ft | 453 kts | 106° |
| 2026-05-07 21:23 | 54.02621 | 40.65329 | 34944 ft | 452 kts | 106° |
| 2026-05-07 21:24 | 54.00807 | 40.75582 | 34945 ft | 452 kts | 107° |
| 2026-05-07 21:24 | 53.98988 | 40.85801 | 34944 ft | 452 kts | 107° |
| 2026-05-07 21:25 | 53.97158 | 40.95949 | 34952 ft | 452 kts | 107° |
| 2026-05-07 21:25 | 53.95317 | 41.06134 | 34951 ft | 451 kts | 106° |
| 2026-05-07 21:26 | 53.93613 | 41.16383 | 34947 ft | 451 kts | 105° |
| 2026-05-07 21:26 | 53.91988 | 41.26652 | 34949 ft | 450 kts | 105° |
| 2026-05-07 21:27 | 53.90328 | 41.36892 | 34950 ft | 450 kts | 105° |
| 2026-05-07 21:27 | 53.88617 | 41.47094 | 34948 ft | 450 kts | 105° |
| 2026-05-07 21:28 | 53.86897 | 41.57283 | 34948 ft | 450 kts | 105° |
| 2026-05-07 21:28 | 53.85177 | 41.67469 | 34948 ft | 449 kts | 105° |
| 2026-05-07 21:29 | 53.83459 | 41.77640 | 34946 ft | 449 kts | 105° |
| 2026-05-07 21:29 | 53.81727 | 41.87796 | 34945 ft | 449 kts | 105° |
| 2026-05-07 21:30 | 53.79984 | 41.97939 | 34949 ft | 449 kts | 106° |
| 2026-05-07 21:30 | 53.78233 | 42.08062 | 34947 ft | 449 kts | 106° |
| 2026-05-07 21:31 | 53.76470 | 42.18179 | 34951 ft | 448 kts | 106° |
| 2026-05-07 21:31 | 53.74693 | 42.28279 | 34947 ft | 448 kts | 106° |
| 2026-05-07 21:32 | 53.72913 | 42.38383 | 34953 ft | 448 kts | 106° |
| 2026-05-07 21:32 | 53.71124 | 42.48453 | 34948 ft | 448 kts | 106° |
| 2026-05-07 21:33 | 53.69169 | 42.58437 | 34946 ft | 448 kts | 115° |
| 2026-05-07 21:33 | 53.67616 | 42.62986 | 34944 ft | 448 kts | 126° |
| 2026-05-07 21:33 | 53.65604 | 42.66968 | 34942 ft | 447 kts | 136° |
| 2026-05-07 21:34 | 53.63208 | 42.70296 | 34943 ft | 446 kts | 147° |
| 2026-05-07 21:34 | 53.60526 | 42.72867 | 34939 ft | 445 kts | 156° |
| 2026-05-07 21:34 | 53.54834 | 42.76990 | 34942 ft | 445 kts | 157° |
| 2026-05-07 21:35 | 53.49124 | 42.81086 | 34940 ft | 446 kts | 157° |
| 2026-05-07 21:35 | 53.43425 | 42.85181 | 34943 ft | 446 kts | 157° |
| 2026-05-07 21:36 | 53.37719 | 42.89283 | 34946 ft | 447 kts | 157° |
| 2026-05-07 21:36 | 53.31995 | 42.93373 | 34947 ft | 447 kts | 157° |
| 2026-05-07 21:37 | 53.26280 | 42.97453 | 34954 ft | 447 kts | 157° |
| 2026-05-07 21:37 | 53.20562 | 43.01520 | 34953 ft | 447 kts | 157° |
| 2026-05-07 21:38 | 53.14872 | 43.05534 | 34954 ft | 447 kts | 157° |
| 2026-05-07 21:38 | 53.09125 | 43.09662 | 34957 ft | 447 kts | 156° |
| 2026-05-07 21:39 | 53.03495 | 43.13893 | 34960 ft | 447 kts | 155° |
| 2026-05-07 21:39 | 52.97835 | 43.18163 | 34963 ft | 447 kts | 156° |
| 2026-05-07 21:40 | 52.92156 | 43.22375 | 34964 ft | 447 kts | 156° |
| 2026-05-07 21:40 | 52.86484 | 43.26549 | 34964 ft | 446 kts | 156° |
| 2026-05-07 21:41 | 52.80801 | 43.30720 | 34964 ft | 446 kts | 156° |
| 2026-05-07 21:41 | 52.75129 | 43.34879 | 34964 ft | 446 kts | 156° |
| 2026-05-07 21:42 | 52.69453 | 43.39028 | 34964 ft | 446 kts | 156° |
| 2026-05-07 21:42 | 52.63773 | 43.43166 | 34963 ft | 446 kts | 156° |
| 2026-05-07 21:43 | 52.58099 | 43.47285 | 34962 ft | 446 kts | 156° |
| 2026-05-07 21:43 | 52.52425 | 43.51394 | 34962 ft | 446 kts | 156° |
| 2026-05-07 21:44 | 52.46739 | 43.55497 | 34962 ft | 446 kts | 156° |
| 2026-05-07 21:44 | 52.41059 | 43.59592 | 34962 ft | 446 kts | 156° |
| 2026-05-07 21:45 | 52.35375 | 43.63686 | 34962 ft | 446 kts | 156° |
| 2026-05-07 21:45 | 52.29728 | 43.67735 | 34960 ft | 446 kts | 156° |
| 2026-05-07 21:46 | 52.24036 | 43.71798 | 34959 ft | 447 kts | 156° |
| 2026-05-07 21:46 | 52.18337 | 43.75850 | 34963 ft | 447 kts | 156° |
| 2026-05-07 21:47 | 52.12636 | 43.79901 | 34963 ft | 447 kts | 156° |
| 2026-05-07 21:47 | 52.06933 | 43.83941 | 34966 ft | 447 kts | 156° |
| 2026-05-07 21:48 | 52.01227 | 43.87977 | 34957 ft | 448 kts | 156° |
| 2026-05-07 21:48 | 51.95511 | 43.92000 | 34960 ft | 448 kts | 156° |
| 2026-05-07 21:49 | 51.89790 | 43.96010 | 34959 ft | 448 kts | 156° |
| 2026-05-07 21:49 | 51.84062 | 44.00012 | 34963 ft | 448 kts | 156° |
| 2026-05-07 21:50 | 51.78333 | 44.04017 | 34962 ft | 448 kts | 156° |
| 2026-05-07 21:50 | 51.72613 | 44.08016 | 34965 ft | 449 kts | 156° |
| 2026-05-07 21:51 | 51.66874 | 44.12014 | 34969 ft | 449 kts | 156° |
| 2026-05-07 21:51 | 51.61139 | 44.15989 | 34964 ft | 449 kts | 156° |
| 2026-05-07 21:52 | 51.55399 | 44.19948 | 34961 ft | 449 kts | 156° |
| 2026-05-07 21:52 | 51.49691 | 44.23884 | 34957 ft | 449 kts | 156° |
| 2026-05-07 21:53 | 51.43939 | 44.27833 | 34963 ft | 450 kts | 156° |
| 2026-05-07 21:53 | 51.38188 | 44.31770 | 34964 ft | 450 kts | 156° |
| 2026-05-07 21:54 | 51.32432 | 44.35702 | 34966 ft | 450 kts | 156° |
| 2026-05-07 21:54 | 51.26671 | 44.39640 | 34967 ft | 450 kts | 156° |
| 2026-05-07 21:55 | 51.20912 | 44.43549 | 34971 ft | 450 kts | 156° |
| 2026-05-07 21:55 | 51.14910 | 44.46293 | 34960 ft | 450 kts | 173° |
| 2026-05-07 21:56 | 51.08661 | 44.46223 | 34967 ft | 450 kts | 184° |
| 2026-05-07 21:56 | 51.02402 | 44.45621 | 34968 ft | 451 kts | 183° |
| 2026-05-07 21:57 | 50.96136 | 44.45051 | 34964 ft | 451 kts | 183° |
| 2026-05-07 21:57 | 50.89873 | 44.44477 | 34968 ft | 451 kts | 183° |
| 2026-05-07 21:58 | 50.83601 | 44.43897 | 34958 ft | 451 kts | 183° |
| 2026-05-07 21:58 | 50.77331 | 44.43314 | 34974 ft | 452 kts | 183° |
| 2026-05-07 21:59 | 50.71059 | 44.42724 | 34965 ft | 452 kts | 183° |
| 2026-05-07 21:59 | 50.64787 | 44.42136 | 34968 ft | 452 kts | 183° |
| 2026-05-07 22:00 | 50.58504 | 44.41559 | 34973 ft | 452 kts | 183° |
| 2026-05-07 22:00 | 50.52232 | 44.40991 | 34969 ft | 452 kts | 183° |
| 2026-05-07 22:01 | 50.45957 | 44.40422 | 34963 ft | 452 kts | 183° |
| 2026-05-07 22:01 | 50.39723 | 44.39852 | 34969 ft | 452 kts | 183° |
| 2026-05-07 22:02 | 50.33441 | 44.39275 | 34965 ft | 452 kts | 183° |
| 2026-05-07 22:02 | 50.27156 | 44.38712 | 34974 ft | 453 kts | 183° |
| 2026-05-07 22:03 | 50.20858 | 44.38137 | 34971 ft | 453 kts | 183° |
| 2026-05-07 22:03 | 50.14561 | 44.37564 | 34978 ft | 453 kts | 183° |
| 2026-05-07 22:04 | 50.08261 | 44.36991 | 34980 ft | 454 kts | 182° |
| 2026-05-07 22:04 | 50.03021 | 44.36518 | 34981 ft | 454 kts | 182° |
| 2026-05-07 22:05 | 49.96720 | 44.35957 | 34976 ft | 454 kts | 182° |
| 2026-05-07 22:05 | 49.90417 | 44.35402 | 34978 ft | 454 kts | 182° |
| 2026-05-07 22:06 | 49.84107 | 44.34840 | 34977 ft | 454 kts | 182° |
| 2026-05-07 22:06 | 49.77802 | 44.34273 | 34971 ft | 454 kts | 182° |
| 2026-05-07 22:07 | 49.71493 | 44.33710 | 34979 ft | 454 kts | 182° |
| 2026-05-07 22:07 | 49.65184 | 44.33145 | 34971 ft | 454 kts | 182° |
| 2026-05-07 22:08 | 49.58873 | 44.32856 | 34981 ft | 453 kts | 174° |
| 2026-05-07 22:08 | 49.52781 | 44.35020 | 34973 ft | 449 kts | 156° |
| 2026-05-07 22:09 | 49.47016 | 44.38703 | 34971 ft | 449 kts | 156° |
| 2026-05-07 22:09 | 49.41239 | 44.42364 | 34972 ft | 449 kts | 156° |
| 2026-05-07 22:10 | 49.35454 | 44.46016 | 34973 ft | 449 kts | 156° |
| 2026-05-07 22:10 | 49.29673 | 44.49668 | 34973 ft | 449 kts | 156° |
| 2026-05-07 22:11 | 49.23888 | 44.53323 | 34979 ft | 450 kts | 156° |
| 2026-05-07 22:11 | 49.18106 | 44.56961 | 34981 ft | 449 kts | 156° |
| 2026-05-07 22:12 | 49.12323 | 44.60581 | 34984 ft | 449 kts | 156° |
| 2026-05-07 22:12 | 49.06538 | 44.64210 | 34986 ft | 449 kts | 156° |
| 2026-05-07 22:13 | 49.00753 | 44.67828 | 34987 ft | 449 kts | 156° |
| 2026-05-07 22:13 | 48.94971 | 44.71420 | 34988 ft | 449 kts | 156° |
| 2026-05-07 22:14 | 48.89187 | 44.75016 | 34987 ft | 449 kts | 156° |
| 2026-05-07 22:14 | 48.83517 | 44.78930 | 34984 ft | 447 kts | 147° |
| 2026-05-07 22:15 | 48.78546 | 44.84532 | 34979 ft | 445 kts | 140° |
| 2026-05-07 22:15 | 48.73674 | 44.90325 | 34977 ft | 445 kts | 140° |
| 2026-05-07 22:16 | 48.68822 | 44.96069 | 34977 ft | 446 kts | 140° |
| 2026-05-07 22:16 | 48.63930 | 45.01829 | 34976 ft | 446 kts | 141° |
| 2026-05-07 22:17 | 48.59029 | 45.07586 | 34975 ft | 446 kts | 141° |
| 2026-05-07 22:17 | 48.54136 | 45.13332 | 34970 ft | 446 kts | 141° |
| 2026-05-07 22:18 | 48.46779 | 45.21946 | 34973 ft | 446 kts | 141° |
| 2026-05-07 22:19 | 48.41871 | 45.27662 | 34972 ft | 446 kts | 141° |
| 2026-05-07 22:19 | 48.36494 | 45.32339 | 34971 ft | 448 kts | 153° |
| 2026-05-07 22:20 | 48.30896 | 45.36446 | 34971 ft | 448 kts | 153° |
| 2026-05-07 22:20 | 48.25291 | 45.40561 | 34972 ft | 448 kts | 153° |
| 2026-05-07 22:21 | 48.19689 | 45.44658 | 34972 ft | 448 kts | 153° |
| 2026-05-07 22:21 | 48.14081 | 45.48757 | 34975 ft | 448 kts | 153° |
| 2026-05-07 22:22 | 48.08470 | 45.52847 | 34976 ft | 448 kts | 153° |
| 2026-05-07 22:22 | 48.02854 | 45.56910 | 34974 ft | 448 kts | 153° |
| 2026-05-07 22:23 | 47.97238 | 45.60977 | 34974 ft | 449 kts | 153° |
| 2026-05-07 22:23 | 47.91661 | 45.65018 | 34974 ft | 449 kts | 153° |
| 2026-05-07 22:24 | 47.86046 | 45.69078 | 34975 ft | 449 kts | 153° |
| 2026-05-07 22:24 | 47.80422 | 45.73118 | 34975 ft | 449 kts | 153° |
| 2026-05-07 22:25 | 47.74793 | 45.77150 | 34980 ft | 449 kts | 153° |
| 2026-05-07 22:25 | 47.69163 | 45.81188 | 34981 ft | 449 kts | 153° |
| 2026-05-07 22:26 | 47.63539 | 45.85222 | 34985 ft | 449 kts | 153° |
| 2026-05-07 22:26 | 47.57905 | 45.89246 | 34989 ft | 449 kts | 153° |
| 2026-05-07 22:27 | 47.52272 | 45.93244 | 34989 ft | 449 kts | 153° |
| 2026-05-07 22:27 | 47.46640 | 45.97225 | 34988 ft | 449 kts | 153° |
| 2026-05-07 22:28 | 47.41007 | 46.01210 | 34987 ft | 449 kts | 153° |
| 2026-05-07 22:28 | 47.35375 | 46.05187 | 34991 ft | 448 kts | 153° |
| 2026-05-07 22:29 | 47.29752 | 46.09173 | 34987 ft | 448 kts | 153° |
| 2026-05-07 22:29 | 47.24135 | 46.13143 | 34988 ft | 448 kts | 153° |
| 2026-05-07 22:30 | 47.18512 | 46.17100 | 34988 ft | 448 kts | 153° |
| 2026-05-07 22:30 | 47.12897 | 46.21051 | 34991 ft | 448 kts | 153° |
| 2026-05-07 22:31 | 47.07383 | 46.25252 | 34988 ft | 446 kts | 144° |
| 2026-05-07 22:31 | 47.02899 | 46.31407 | 34983 ft | 441 kts | 126° |
| 2026-05-07 22:32 | 46.99548 | 46.38907 | 34976 ft | 440 kts | 121° |
| 2026-05-07 22:32 | 46.96256 | 46.46460 | 34974 ft | 440 kts | 121° |
| 2026-05-07 22:33 | 46.92956 | 46.54024 | 34975 ft | 441 kts | 121° |
| 2026-05-07 22:33 | 46.89660 | 46.61573 | 34976 ft | 440 kts | 121° |
| 2026-05-07 22:34 | 46.86361 | 46.69108 | 34976 ft | 440 kts | 121° |
| 2026-05-07 22:34 | 46.83050 | 46.76621 | 34973 ft | 440 kts | 121° |
| 2026-05-07 22:35 | 46.79759 | 46.84062 | 34972 ft | 439 kts | 121° |
| 2026-05-07 22:35 | 46.76448 | 46.91558 | 34968 ft | 439 kts | 121° |
| 2026-05-07 22:36 | 46.73138 | 46.99041 | 34968 ft | 439 kts | 121° |
| 2026-05-07 22:36 | 46.69814 | 47.06500 | 34965 ft | 439 kts | 121° |
| 2026-05-07 22:37 | 46.66515 | 47.13971 | 34964 ft | 438 kts | 121° |
| 2026-05-07 22:37 | 46.63269 | 47.21479 | 34960 ft | 438 kts | 121° |
| 2026-05-07 22:38 | 46.60023 | 47.28969 | 34956 ft | 438 kts | 121° |
| 2026-05-07 22:38 | 46.56753 | 47.36447 | 34952 ft | 438 kts | 121° |
| 2026-05-07 22:39 | 46.53469 | 47.43895 | 34952 ft | 438 kts | 121° |
| 2026-05-07 22:39 | 46.50184 | 47.51334 | 34945 ft | 438 kts | 121° |
| 2026-05-07 22:40 | 46.46899 | 47.58776 | 34939 ft | 438 kts | 121° |
| 2026-05-07 22:40 | 46.43608 | 47.66214 | 34937 ft | 438 kts | 121° |
| 2026-05-07 22:41 | 46.40311 | 47.73643 | 34935 ft | 438 kts | 121° |
| 2026-05-07 22:41 | 46.37006 | 47.81061 | 34934 ft | 438 kts | 122° |
| 2026-05-07 22:42 | 46.33715 | 47.88427 | 34930 ft | 439 kts | 122° |
| 2026-05-07 22:42 | 46.30397 | 47.95842 | 34931 ft | 439 kts | 122° |
| 2026-05-07 22:43 | 46.27752 | 48.03736 | 34928 ft | 437 kts | 105° |
| 2026-05-07 22:43 | 46.26403 | 48.12279 | 34928 ft | 436 kts | 102° |
| 2026-05-07 22:44 | 46.25095 | 48.20857 | 34926 ft | 437 kts | 102° |
| 2026-05-07 22:44 | 46.23767 | 48.29436 | 34926 ft | 438 kts | 102° |
| 2026-05-07 22:45 | 46.22444 | 48.38016 | 34927 ft | 438 kts | 102° |
| 2026-05-07 22:45 | 46.21112 | 48.46620 | 34928 ft | 439 kts | 102° |
| 2026-05-07 22:46 | 46.18840 | 48.54744 | 34926 ft | 440 kts | 124° |
| 2026-05-07 22:46 | 46.16895 | 48.58137 | 34926 ft | 440 kts | 136° |
| 2026-05-07 22:46 | 46.14512 | 48.60891 | 34927 ft | 440 kts | 148° |
| 2026-05-07 22:46 | 46.11789 | 48.62900 | 34923 ft | 440 kts | 160° |
| 2026-05-07 22:47 | 46.08865 | 48.64186 | 34929 ft | 440 kts | 164° |
| 2026-05-07 22:47 | 46.02953 | 48.66545 | 34929 ft | 441 kts | 164° |
| 2026-05-07 22:48 | 45.97036 | 48.68922 | 34933 ft | 442 kts | 164° |
| 2026-05-07 22:48 | 45.91118 | 48.71304 | 34941 ft | 442 kts | 164° |
| 2026-05-07 22:49 | 45.85199 | 48.73683 | 34948 ft | 442 kts | 165° |
| 2026-05-07 22:49 | 45.79283 | 48.76060 | 34957 ft | 441 kts | 165° |
| 2026-05-07 22:50 | 45.73369 | 48.78405 | 34961 ft | 441 kts | 165° |
| 2026-05-07 22:50 | 45.67460 | 48.80747 | 34968 ft | 440 kts | 165° |
| 2026-05-07 22:51 | 45.62552 | 48.82701 | 34965 ft | 440 kts | 165° |
| 2026-05-07 22:51 | 45.56653 | 48.85037 | 34976 ft | 440 kts | 166° |
| 2026-05-07 22:52 | 45.50752 | 48.87360 | 34979 ft | 439 kts | 166° |
| 2026-05-07 22:52 | 45.44865 | 48.89681 | 34987 ft | 439 kts | 166° |
| 2026-05-07 22:53 | 45.38012 | 48.92382 | 34988 ft | 439 kts | 166° |
| 2026-05-07 22:53 | 45.33077 | 48.94320 | 34991 ft | 439 kts | 166° |
| 2026-05-07 22:54 | 45.27193 | 48.96624 | 34995 ft | 439 kts | 167° |
| 2026-05-07 22:54 | 45.21311 | 48.98928 | 34998 ft | 438 kts | 166° |
| 2026-05-07 22:55 | 45.15432 | 49.01218 | 34999 ft | 438 kts | 167° |
| 2026-05-07 22:55 | 45.09553 | 49.03502 | 34999 ft | 438 kts | 167° |
| 2026-05-07 22:56 | 45.03685 | 49.05784 | 34999 ft | 438 kts | 167° |
| 2026-05-07 22:56 | 44.97816 | 49.08063 | 35003 ft | 437 kts | 167° |
| 2026-05-07 22:57 | 44.91949 | 49.10333 | 35006 ft | 437 kts | 167° |
| 2026-05-07 22:57 | 44.86084 | 49.12595 | 35006 ft | 437 kts | 167° |
| 2026-05-07 22:58 | 44.80256 | 49.14833 | 35006 ft | 437 kts | 167° |
| 2026-05-07 22:58 | 44.74396 | 49.17077 | 35013 ft | 436 kts | 167° |
| 2026-05-07 22:59 | 44.68499 | 49.19348 | 35010 ft | 436 kts | 167° |
| 2026-05-07 22:59 | 44.62683 | 49.21583 | 35011 ft | 436 kts | 167° |
| 2026-05-07 23:00 | 44.56822 | 49.23814 | 35013 ft | 436 kts | 168° |
| 2026-05-07 23:00 | 44.50969 | 49.26029 | 35016 ft | 436 kts | 168° |
| 2026-05-07 23:01 | 44.45114 | 49.28258 | 35019 ft | 436 kts | 168° |
| 2026-05-07 23:01 | 44.39266 | 49.30488 | 35022 ft | 435 kts | 168° |
| 2026-05-07 23:02 | 44.33422 | 49.32704 | 35026 ft | 435 kts | 168° |
| 2026-05-07 23:02 | 44.27579 | 49.34913 | 35040 ft | 435 kts | 168° |
| 2026-05-07 23:03 | 44.21742 | 49.37115 | 35032 ft | 434 kts | 169° |
| 2026-05-07 23:03 | 44.15911 | 49.39307 | 35036 ft | 434 kts | 169° |
| 2026-05-07 23:04 | 44.10089 | 49.41487 | 35041 ft | 433 kts | 169° |
| 2026-05-07 23:04 | 44.04273 | 49.43669 | 35051 ft | 433 kts | 169° |
| 2026-05-07 23:05 | 43.98463 | 49.45849 | 35049 ft | 432 kts | 170° |
| 2026-05-07 23:05 | 43.95524 | 49.46476 | 35046 ft | 423 kts | 185° |
| 2026-05-07 23:05 | 43.92651 | 49.45979 | 34896 ft | 412 kts | 199° |
| 2026-05-07 23:05 | 43.90060 | 49.44430 | 34365 ft | 403 kts | 216° |
| 2026-05-07 23:06 | 43.87967 | 49.41906 | 34112 ft | 399 kts | 231° |
| 2026-05-07 23:06 | 43.86442 | 49.38706 | 34031 ft | 400 kts | 245° |
| 2026-05-07 23:06 | 43.85562 | 49.35038 | 34070 ft | 403 kts | 258° |
| 2026-05-07 23:07 | 43.84608 | 49.27350 | 34058 ft | 406 kts | 259° |
| 2026-05-07 23:07 | 43.83694 | 49.19629 | 34058 ft | 406 kts | 259° |
| 2026-05-07 23:08 | 43.82767 | 49.11913 | 34064 ft | 406 kts | 258° |
| 2026-05-07 23:08 | 43.81832 | 49.04191 | 34063 ft | 407 kts | 258° |
| 2026-05-07 23:09 | 43.80888 | 48.96461 | 34063 ft | 407 kts | 258° |
| 2026-05-07 23:09 | 43.79934 | 48.88734 | 34063 ft | 408 kts | 258° |
| 2026-05-07 23:10 | 43.78969 | 48.80995 | 34065 ft | 408 kts | 258° |
| 2026-05-07 23:10 | 43.78003 | 48.73247 | 34065 ft | 408 kts | 258° |
| 2026-05-07 23:11 | 43.77035 | 48.65504 | 34063 ft | 409 kts | 258° |
| 2026-05-07 23:11 | 43.76057 | 48.57808 | 34065 ft | 409 kts | 258° |
| 2026-05-07 23:12 | 43.75079 | 48.50046 | 34064 ft | 410 kts | 258° |
| 2026-05-07 23:12 | 43.74086 | 48.42281 | 34066 ft | 410 kts | 258° |
| 2026-05-07 23:13 | 43.73077 | 48.34512 | 34070 ft | 411 kts | 258° |
| 2026-05-07 23:13 | 43.72061 | 48.26732 | 34072 ft | 411 kts | 258° |
| 2026-05-07 23:14 | 43.71044 | 48.18945 | 34075 ft | 412 kts | 258° |
| 2026-05-07 23:14 | 43.70031 | 48.11161 | 34076 ft | 412 kts | 258° |
| 2026-05-07 23:15 | 43.69015 | 48.03359 | 34076 ft | 413 kts | 258° |
| 2026-05-07 23:15 | 43.67977 | 47.95559 | 34071 ft | 413 kts | 258° |
| 2026-05-07 23:16 | 43.66932 | 47.87746 | 34071 ft | 414 kts | 258° |
| 2026-05-07 23:16 | 43.65879 | 47.79911 | 34079 ft | 415 kts | 258° |
| 2026-05-07 23:17 | 43.64830 | 47.72067 | 34075 ft | 416 kts | 258° |
| 2026-05-07 23:17 | 43.63763 | 47.64219 | 34079 ft | 416 kts | 258° |
| 2026-05-07 23:18 | 43.62695 | 47.56355 | 34077 ft | 417 kts | 258° |
| 2026-05-07 23:18 | 43.61635 | 47.48488 | 34082 ft | 418 kts | 259° |
| 2026-05-07 23:19 | 43.60901 | 47.40531 | 34081 ft | 419 kts | 263° |
| 2026-05-07 23:19 | 43.60352 | 47.32519 | 34086 ft | 420 kts | 263° |
| 2026-05-07 23:20 | 43.59744 | 47.24561 | 34086 ft | 420 kts | 262° |
| 2026-05-07 23:20 | 43.59071 | 47.16547 | 34088 ft | 421 kts | 262° |
| 2026-05-07 23:21 | 43.58376 | 47.08519 | 34091 ft | 422 kts | 262° |
| 2026-05-07 23:21 | 43.57685 | 47.00483 | 34097 ft | 423 kts | 262° |
| 2026-05-07 23:22 | 43.56987 | 46.92420 | 34100 ft | 423 kts | 262° |
| 2026-05-07 23:22 | 43.56285 | 46.84358 | 34106 ft | 424 kts | 262° |
| 2026-05-07 23:23 | 43.55573 | 46.76290 | 34106 ft | 424 kts | 262° |
| 2026-05-07 23:23 | 43.54860 | 46.68212 | 34107 ft | 425 kts | 262° |
| 2026-05-07 23:24 | 43.54143 | 46.60119 | 34109 ft | 426 kts | 262° |
| 2026-05-07 23:24 | 43.53414 | 46.52007 | 34112 ft | 427 kts | 262° |
| 2026-05-07 23:25 | 43.52671 | 46.43881 | 34120 ft | 428 kts | 262° |
| 2026-05-07 23:25 | 43.51933 | 46.35736 | 34127 ft | 429 kts | 262° |
| 2026-05-07 23:26 | 43.51189 | 46.27585 | 34134 ft | 429 kts | 262° |
| 2026-05-07 23:26 | 43.50425 | 46.19435 | 34135 ft | 429 kts | 261° |
| 2026-05-07 23:27 | 43.49263 | 46.07195 | 34140 ft | 430 kts | 262° |
| 2026-05-07 23:27 | 43.49390 | 45.98976 | 34143 ft | 432 kts | 276° |
| 2026-05-07 23:28 | 43.50096 | 45.90744 | 34142 ft | 433 kts | 275° |
| 2026-05-07 23:28 | 43.50768 | 45.82505 | 34147 ft | 434 kts | 275° |
| 2026-05-07 23:29 | 43.51433 | 45.74242 | 34150 ft | 434 kts | 275° |
| 2026-05-07 23:29 | 43.52104 | 45.65957 | 34150 ft | 435 kts | 275° |
| 2026-05-07 23:30 | 43.52774 | 45.57721 | 34150 ft | 436 kts | 275° |
| 2026-05-07 23:30 | 43.53436 | 45.49429 | 34145 ft | 436 kts | 275° |
| 2026-05-07 23:31 | 43.54090 | 45.41107 | 34143 ft | 437 kts | 275° |
| 2026-05-07 23:31 | 43.54742 | 45.32780 | 34146 ft | 438 kts | 275° |
| 2026-05-07 23:32 | 43.55392 | 45.24433 | 34148 ft | 438 kts | 275° |
| 2026-05-07 23:32 | 43.56032 | 45.16087 | 34149 ft | 438 kts | 275° |
| 2026-05-07 23:33 | 43.56668 | 45.07717 | 34146 ft | 439 kts | 275° |
| 2026-05-07 23:33 | 43.57295 | 44.99344 | 34152 ft | 439 kts | 275° |
| 2026-05-07 23:34 | 43.57917 | 44.90955 | 34147 ft | 440 kts | 276° |
| 2026-05-07 23:34 | 43.58540 | 44.82551 | 34143 ft | 441 kts | 276° |
| 2026-05-07 23:35 | 43.59159 | 44.74137 | 34146 ft | 441 kts | 276° |
| 2026-05-07 23:35 | 43.59766 | 44.65702 | 34138 ft | 442 kts | 276° |
| 2026-05-07 23:36 | 43.60372 | 44.57251 | 34136 ft | 443 kts | 276° |
| 2026-05-07 23:36 | 43.60973 | 44.48782 | 34144 ft | 444 kts | 276° |
| 2026-05-07 23:37 | 43.61566 | 44.40312 | 34130 ft | 444 kts | 276° |
| 2026-05-07 23:37 | 43.62155 | 44.31835 | 34133 ft | 444 kts | 276° |
| 2026-05-07 23:38 | 43.62735 | 44.23347 | 34127 ft | 444 kts | 276° |
| 2026-05-07 23:38 | 43.63213 | 44.16284 | 34126 ft | 445 kts | 276° |
| 2026-05-07 23:39 | 43.63729 | 44.06376 | 34124 ft | 446 kts | 273° |
| 2026-05-07 23:39 | 43.63935 | 43.97806 | 34124 ft | 447 kts | 272° |
| 2026-05-07 23:40 | 43.64115 | 43.89231 | 34108 ft | 447 kts | 273° |
| 2026-05-07 23:40 | 43.64303 | 43.82048 | 34118 ft | 447 kts | 273° |
| 2026-05-07 23:41 | 43.64545 | 43.73511 | 34122 ft | 448 kts | 273° |
| 2026-05-07 23:41 | 43.64781 | 43.64917 | 34118 ft | 448 kts | 273° |
| 2026-05-07 23:42 | 43.65004 | 43.56304 | 34116 ft | 449 kts | 273° |
| 2026-05-07 23:42 | 43.65218 | 43.47699 | 34125 ft | 449 kts | 273° |
| 2026-05-07 23:43 | 43.65427 | 43.39065 | 34123 ft | 450 kts | 273° |
| 2026-05-07 23:43 | 43.65628 | 43.30433 | 34129 ft | 450 kts | 273° |
| 2026-05-07 23:44 | 43.65830 | 43.21776 | 34139 ft | 451 kts | 273° |
| 2026-05-07 23:44 | 43.66020 | 43.13126 | 34153 ft | 451 kts | 274° |
| 2026-05-07 23:45 | 43.66202 | 43.04463 | 34163 ft | 452 kts | 273° |
| 2026-05-07 23:45 | 43.66376 | 42.95789 | 34169 ft | 452 kts | 273° |
| 2026-05-07 23:46 | 43.66547 | 42.87101 | 34176 ft | 453 kts | 273° |
| 2026-05-07 23:46 | 43.66712 | 42.78410 | 34182 ft | 453 kts | 273° |
| 2026-05-07 23:47 | 43.66868 | 42.69703 | 34181 ft | 453 kts | 274° |
| 2026-05-07 23:47 | 43.67024 | 42.60994 | 34184 ft | 454 kts | 273° |
| 2026-05-07 23:48 | 43.67169 | 42.52275 | 34189 ft | 454 kts | 273° |
| 2026-05-07 23:48 | 43.67304 | 42.43613 | 34197 ft | 454 kts | 273° |
| 2026-05-07 23:49 | 43.67438 | 42.34891 | 34205 ft | 454 kts | 273° |
| 2026-05-07 23:49 | 43.67564 | 42.26170 | 34203 ft | 454 kts | 273° |
| 2026-05-07 23:50 | 43.67682 | 42.17439 | 34210 ft | 455 kts | 273° |
| 2026-05-07 23:50 | 43.67787 | 42.08707 | 34217 ft | 455 kts | 273° |
| 2026-05-07 23:51 | 43.67894 | 41.99971 | 34221 ft | 455 kts | 273° |
| 2026-05-07 23:51 | 43.67997 | 41.91242 | 34227 ft | 455 kts | 273° |
| 2026-05-07 23:52 | 43.68091 | 41.82513 | 34234 ft | 455 kts | 273° |
| 2026-05-07 23:52 | 43.68178 | 41.73778 | 34239 ft | 455 kts | 273° |
| 2026-05-07 23:53 | 43.68252 | 41.65042 | 34240 ft | 455 kts | 273° |
| 2026-05-07 23:53 | 43.68328 | 41.56311 | 34239 ft | 455 kts | 273° |
| 2026-05-07 23:54 | 43.68397 | 41.47571 | 33921 ft | 454 kts | 273° |
| 2026-05-07 23:54 | 43.68424 | 41.43229 | 33396 ft | 450 kts | 273° |
| 2026-05-07 23:54 | 43.68450 | 41.38931 | 32882 ft | 447 kts | 273° |
| 2026-05-07 23:55 | 43.68475 | 41.34650 | 32379 ft | 444 kts | 273° |
| 2026-05-07 23:55 | 43.68500 | 41.30397 | 31892 ft | 441 kts | 273° |
| 2026-05-07 23:55 | 43.68522 | 41.26223 | 31409 ft | 439 kts | 273° |
| 2026-05-07 23:55 | 43.68542 | 41.22023 | 30926 ft | 436 kts | 273° |
| 2026-05-07 23:56 | 43.68561 | 41.17788 | 30455 ft | 434 kts | 273° |
| 2026-05-07 23:56 | 43.68579 | 41.13677 | 29940 ft | 432 kts | 273° |
| 2026-05-07 23:56 | 43.68596 | 41.09534 | 29399 ft | 430 kts | 273° |
| 2026-05-07 23:56 | 43.68611 | 41.05426 | 28867 ft | 426 kts | 273° |
| 2026-05-07 23:57 | 43.68624 | 41.01342 | 28357 ft | 423 kts | 273° |
| 2026-05-07 23:57 | 43.68634 | 40.97303 | 27899 ft | 419 kts | 272° |
| 2026-05-07 23:57 | 43.68642 | 40.93299 | 27442 ft | 415 kts | 273° |
| 2026-05-07 23:57 | 43.68651 | 40.89333 | 26986 ft | 411 kts | 272° |
| 2026-05-07 23:58 | 43.68662 | 40.85396 | 26556 ft | 407 kts | 272° |
| 2026-05-07 23:58 | 43.68681 | 40.81498 | 26133 ft | 405 kts | 272° |
| 2026-05-07 23:58 | 43.68703 | 40.77622 | 25705 ft | 402 kts | 272° |
| 2026-05-07 23:58 | 43.68725 | 40.73775 | 25281 ft | 399 kts | 272° |
| 2026-05-07 23:59 | 43.68746 | 40.69956 | 24870 ft | 396 kts | 272° |
| 2026-05-07 23:59 | 43.68762 | 40.66168 | 24465 ft | 394 kts | 272° |
| 2026-05-07 23:59 | 43.68775 | 40.62395 | 24062 ft | 391 kts | 272° |
| 2026-05-07 23:59 | 43.68787 | 40.58659 | 23634 ft | 388 kts | 272° |
| 2026-05-08 00:00 | 43.68796 | 40.54944 | 23169 ft | 385 kts | 272° |
| 2026-05-08 00:00 | 43.68803 | 40.51251 | 22703 ft | 383 kts | 272° |
| 2026-05-08 00:00 | 43.68810 | 40.47584 | 22247 ft | 380 kts | 272° |
| 2026-05-08 00:00 | 43.68817 | 40.43943 | 21797 ft | 378 kts | 272° |
| 2026-05-08 00:01 | 43.68823 | 40.40325 | 21356 ft | 376 kts | 271° |
| 2026-05-08 00:01 | 43.68827 | 40.36728 | 20919 ft | 373 kts | 271° |
| 2026-05-08 00:01 | 43.68828 | 40.33202 | 20494 ft | 371 kts | 271° |
| 2026-05-08 00:01 | 43.68829 | 40.29653 | 20075 ft | 368 kts | 271° |
| 2026-05-08 00:02 | 43.68828 | 40.26129 | 19654 ft | 366 kts | 271° |
| 2026-05-08 00:02 | 43.68827 | 40.22629 | 19239 ft | 363 kts | 271° |
| 2026-05-08 00:02 | 43.68823 | 40.19159 | 18834 ft | 361 kts | 270° |
| 2026-05-08 00:02 | 43.68489 | 40.15730 | 18418 ft | 361 kts | 255° |
| 2026-05-08 00:03 | 43.67503 | 40.12579 | 18187 ft | 355 kts | 238° |
| 2026-05-08 00:03 | 43.65977 | 40.09920 | 18211 ft | 354 kts | 223° |
| 2026-05-08 00:03 | 43.64006 | 40.07887 | 18190 ft | 354 kts | 208° |
| 2026-05-08 00:03 | 43.61790 | 40.06419 | 17917 ft | 352 kts | 203° |
| 2026-05-08 00:04 | 43.59567 | 40.05023 | 17655 ft | 351 kts | 203° |
| 2026-05-08 00:04 | 43.57354 | 40.03642 | 17383 ft | 349 kts | 203° |
| 2026-05-08 00:04 | 43.55143 | 40.02264 | 17117 ft | 347 kts | 203° |
| 2026-05-08 00:04 | 43.52945 | 40.00895 | 16858 ft | 346 kts | 203° |
| 2026-05-08 00:05 | 43.50754 | 39.99531 | 16595 ft | 344 kts | 203° |
| 2026-05-08 00:05 | 43.48576 | 39.98176 | 16338 ft | 343 kts | 203° |
| 2026-05-08 00:05 | 43.46408 | 39.96822 | 16087 ft | 341 kts | 203° |
| 2026-05-08 00:05 | 43.44208 | 39.95639 | 15835 ft | 339 kts | 197° |
| 2026-05-08 00:06 | 43.41977 | 39.94612 | 15583 ft | 338 kts | 197° |
| 2026-05-08 00:06 | 43.39752 | 39.93599 | 15338 ft | 336 kts | 197° |
| 2026-05-08 00:06 | 43.37535 | 39.92593 | 15092 ft | 334 kts | 197° |
| 2026-05-08 00:06 | 43.35334 | 39.91596 | 14846 ft | 333 kts | 197° |
| 2026-05-08 00:07 | 43.33135 | 39.90598 | 14569 ft | 332 kts | 197° |
| 2026-05-08 00:07 | 43.30967 | 39.89612 | 14172 ft | 333 kts | 197° |
| 2026-05-08 00:07 | 43.28768 | 39.88614 | 13735 ft | 333 kts | 197° |
| 2026-05-08 00:07 | 43.26539 | 39.87603 | 13284 ft | 333 kts | 198° |
| 2026-05-08 00:08 | 43.24373 | 39.86620 | 12861 ft | 332 kts | 198° |
| 2026-05-08 00:08 | 43.22180 | 39.85625 | 12420 ft | 331 kts | 198° |
| 2026-05-08 00:08 | 43.19969 | 39.84622 | 11983 ft | 330 kts | 198° |
| 2026-05-08 00:08 | 43.17791 | 39.83636 | 11555 ft | 329 kts | 198° |
| 2026-05-08 00:09 | 43.15651 | 39.82666 | 11137 ft | 327 kts | 198° |
| 2026-05-08 00:09 | 43.13491 | 39.81690 | 10722 ft | 326 kts | 198° |
| 2026-05-08 00:09 | 43.11345 | 39.80726 | 10312 ft | 324 kts | 198° |
| 2026-05-08 00:09 | 43.09208 | 39.79763 | 9881 ft | 322 kts | 199° |
| 2026-05-08 00:10 | 43.07267 | 39.78407 | 9425 ft | 308 kts | 219° |
| 2026-05-08 00:10 | 43.05911 | 39.76244 | 8976 ft | 295 kts | 242° |
| 2026-05-08 00:10 | 43.05272 | 39.73649 | 8545 ft | 286 kts | 264° |
| 2026-05-08 00:10 | 43.05366 | 39.70970 | 8115 ft | 282 kts | 285° |
| 2026-05-08 00:11 | 43.05940 | 39.68406 | 7691 ft | 282 kts | 288° |
| 2026-05-08 00:11 | 43.06532 | 39.65860 | 7272 ft | 281 kts | 288° |
| 2026-05-08 00:11 | 43.07122 | 39.63318 | 6860 ft | 281 kts | 288° |
| 2026-05-08 00:11 | 43.07706 | 39.60771 | 6442 ft | 281 kts | 287° |
| 2026-05-08 00:12 | 43.08289 | 39.58225 | 6076 ft | 277 kts | 287° |
| 2026-05-08 00:12 | 43.08859 | 39.55726 | 6024 ft | 275 kts | 287° |
| 2026-05-08 00:12 | 43.09430 | 39.53227 | 6029 ft | 276 kts | 287° |
| 2026-05-08 00:12 | 43.10003 | 39.50715 | 5833 ft | 276 kts | 287° |
| 2026-05-08 00:13 | 43.10572 | 39.48220 | 5637 ft | 274 kts | 288° |
| 2026-05-08 00:13 | 43.11439 | 39.45926 | 5431 ft | 272 kts | 310° |
| 2026-05-08 00:13 | 43.12903 | 39.44336 | 5225 ft | 270 kts | 335° |
| 2026-05-08 00:13 | 43.14705 | 39.43721 | 5031 ft | 267 kts | 360° |
| 2026-05-08 00:14 | 43.16515 | 39.44161 | 4818 ft | 265 kts | 24° |
| 2026-05-08 00:14 | 43.18040 | 39.45543 | 4609 ft | 264 kts | 47° |
| 2026-05-08 00:14 | 43.19030 | 39.47625 | 4406 ft | 262 kts | 69° |
| 2026-05-08 00:14 | 43.19626 | 39.49978 | 4210 ft | 262 kts | 72° |
| 2026-05-08 00:15 | 43.20182 | 39.52351 | 3998 ft | 261 kts | 73° |
| 2026-05-08 00:15 | 43.20722 | 39.54719 | 3801 ft | 260 kts | 73° |
| 2026-05-08 00:15 | 43.21261 | 39.57088 | 3597 ft | 260 kts | 73° |
| 2026-05-08 00:15 | 43.21802 | 39.59446 | 3396 ft | 259 kts | 73° |
| 2026-05-08 00:16 | 43.22343 | 39.61797 | 3193 ft | 258 kts | 72° |
| 2026-05-08 00:16 | 43.22887 | 39.64141 | 2990 ft | 258 kts | 72° |
| 2026-05-08 00:16 | 43.23430 | 39.66482 | 2794 ft | 257 kts | 72° |
| 2026-05-08 00:16 | 43.23971 | 39.68818 | 2577 ft | 257 kts | 73° |
| 2026-05-08 00:17 | 43.24507 | 39.71148 | 2377 ft | 256 kts | 73° |
| 2026-05-08 00:17 | 43.25043 | 39.73468 | 2176 ft | 255 kts | 72° |
| 2026-05-08 00:17 | 43.25570 | 39.75748 | 2053 ft | 254 kts | 72° |
| 2026-05-08 00:17 | 43.26104 | 39.78058 | 2026 ft | 252 kts | 73° |
| 2026-05-08 00:18 | 43.26645 | 39.80250 | 2026 ft | 234 kts | 65° |
| 2026-05-08 00:18 | 43.27495 | 39.82055 | 2028 ft | 221 kts | 48° |
| 2026-05-08 00:18 | 43.28667 | 39.83391 | 2032 ft | 220 kts | 31° |
| 2026-05-08 00:18 | 43.30001 | 39.84394 | 2035 ft | 214 kts | 29° |
| 2026-05-08 00:19 | 43.31271 | 39.85342 | 2034 ft | 203 kts | 29° |
| 2026-05-08 00:19 | 43.32475 | 39.86242 | 2050 ft | 189 kts | 29° |
| 2026-05-08 00:19 | 43.33575 | 39.87065 | 2032 ft | 172 kts | 29° |
| 2026-05-08 00:19 | 43.34595 | 39.87829 | 1918 ft | 163 kts | 29° |
| 2026-05-08 00:20 | 43.35565 | 39.88556 | 1744 ft | 155 kts | 29° |
| 2026-05-08 00:20 | 43.36477 | 39.89240 | 1642 ft | 146 kts | 29° |
| 2026-05-08 00:20 | 43.37355 | 39.89908 | 1373 ft | 142 kts | 28° |
| 2026-05-08 00:20 | 43.38213 | 39.90549 | 1156 ft | 140 kts | 28° |
| 2026-05-08 00:21 | 43.39062 | 39.91179 | 947 ft | 138 kts | 28° |
| 2026-05-08 00:21 | 43.39905 | 39.91805 | 758 ft | 137 kts | 28° |
| 2026-05-08 00:21 | 43.40736 | 39.92441 | 601 ft | 136 kts | 28° |
| 2026-05-08 00:21 | 43.41570 | 39.93062 | 476 ft | 136 kts | 27° |
| 2026-05-08 00:22 | 43.42404 | 39.93679 | 298 ft | 136 kts | 28° |
| 2026-05-08 00:22 | 43.43229 | 39.94300 | 135 ft | 135 kts | 28° |
| 2026-05-08 00:22 | 43.44024 | 39.94896 | 68 ft | 119 kts | 29° |
| 2026-05-08 00:22 | 43.44605 | 39.95335 | 88 ft | 71 kts | 30° |
| 2026-05-08 00:23 | 43.44890 | 39.95555 | 90 ft | 31 kts | 29° |
| 2026-05-08 00:23 | 43.45076 | 39.95690 | 92 ft | 29 kts | 27° |
| 2026-05-08 00:23 | 43.45249 | 39.95820 | 93 ft | 26 kts | 29° |
| 2026-05-08 00:23 | 43.45292 | 39.95798 | 95 ft | 5 kts | 250° |
| 2026-05-08 00:24 | 43.45274 | 39.95751 | 93 ft | 6 kts | 241° |
| 2026-05-08 00:24 | 43.45256 | 39.95709 | 95 ft | 0 kts | 240° |
| 2026-05-08 00:25 | 43.45255 | 39.95706 | 95 ft | 3 kts | 240° |
| 2026-05-08 00:25 | 43.45231 | 39.95649 | 93 ft | 7 kts | 239° |
| 2026-05-08 00:25 | 43.45206 | 39.95596 | 92 ft | 7 kts | 236° |
| 2026-05-08 00:25 | 43.45168 | 39.95519 | 92 ft | 10 kts | 235° |
| 2026-05-08 00:26 | 43.45125 | 39.95436 | 91 ft | 11 kts | 237° |
| 2026-05-08 00:26 | 43.45088 | 39.95343 | 89 ft | 12 kts | 244° |
| 2026-05-08 00:26 | 43.45052 | 39.95238 | 88 ft | 13 kts | 245° |
| 2026-05-08 00:26 | 43.45016 | 39.95130 | 87 ft | 12 kts | 244° |
| 2026-05-08 00:27 | 43.44964 | 39.95034 | 83 ft | 13 kts | 239° |
| 2026-05-08 00:27 | 43.44923 | 39.94919 | 69 ft | 14 kts | 244° |
| 2026-05-08 00:27 | 43.44885 | 39.94809 | 64 ft | 13 kts | 245° |
| 2026-05-08 00:27 | 43.44848 | 39.94699 | 69 ft | 12 kts | 245° |
| 2026-05-08 00:28 | 43.44814 | 39.94603 | 65 ft | 10 kts | 244° |
| 2026-05-08 00:28 | 43.44786 | 39.94519 | 69 ft | 9 kts | 251° |
| 2026-05-08 00:28 | 43.44811 | 39.94459 | 69 ft | 7 kts | 331° |
| 2026-05-08 00:28 | 43.44837 | 39.94442 | 72 ft | 3 kts | 334° |
| 2026-05-08 00:29 | 43.44842 | 39.94439 | 72 ft | 0 kts | 334° |